Date,TemperatureHighF,TemperatureAvgF,TemperatureLowF,DewpointHighF,DewpointAvgF,DewpointLowF,HumidityHigh,HumidityAvg,HumidityLow,PressureMaxIn,PressureMinIn,WindSpeedMaxMPH,WindSpeedAvgMPH,GustSpeedMaxMPH,PrecipitationSumIn
2013-1-1,35.6,33.1,27.9,29.2,27.1,22.1,84,79,73,30.07,29.96,8,4,8,0.00
2013-1-2,27.9,23.8,20.7,22.2,15.1,11.8,79,69,59,30.24,30.03,9,3,9,0.00
2013-1-3,29.5,24.3,17.6,20.0,15.6,10.4,75,69,64,30.23,30.15,9,3,10,0.00
2013-1-4,32.8,28.7,25.9,23.0,20.7,18.8,78,72,65,30.20,30.10,15,7,15,0.00
2013-1-5,34.0,30.0,25.7,24.2,21.5,18.7,77,70,65,30.38,30.11,14,4,14,0.00
2013-1-6,40.1,34.4,31.3,28.7,25.2,23.0,74,69,62,30.22,30.09,9,3,9,0.00
2013-1-15,31.5,30.7,30.1,28.0,27.7,27.0,89,88,86,30.28,30.20,2,0,2,0.00
2013-1-16,31.5,31.3,31.1,29.1,28.8,28.6,91,90,90,30.19,30.16,0,0,0,0.00
2013-1-20,43.4,32.3,26.3,18.5,13.8,10.8,60,47,32,30.11,29.97,13,5,13,0.00
2013-1-21,32.8,26.1,19.3,21.5,15.5,7.4,68,64,57,30.13,29.88,14,3,14,0.00
2013-1-22,19.3,12.1,8.3,7.7,-0.9,-3.9,67,56,45,30.23,29.96,12,5,13,0.00
2013-1-23,17.8,12.2,6.1,4.3,0.7,-1.2,74,60,45,30.28,30.11,9,3,10,0.00
2013-1-24,20.2,14.5,10.8,11.1,4.4,-0.7,83,65,47,30.47,30.08,13,3,13,0.00
2013-1-25,17.6,13.9,10.6,11.7,5.3,0.2,85,68,59,30.47,30.04,9,2,9,0.00
2013-1-26,26.3,20.9,15.5,19.5,16.0,11.4,85,81,71,30.42,30.06,5,1,5,0.00
2013-1-27,30.4,25.2,18.2,20.4,17.2,13.2,84,72,61,30.57,30.42,6,1,6,0.00
2013-1-28,47.2,32.2,27.0,44.7,28.4,19.4,93,86,72,30.47,30.11,9,2,9,0.00
2013-1-29,62.5,54.8,46.8,54.4,49.7,44.1,92,83,74,30.21,30.06,9,3,9,0.00
2013-1-30,60.8,53.9,49.3,58.2,51.5,45.9,95,92,80,30.06,29.39,15,3,20,0.00
2013-1-31,52.2,32.9,22.9,50.5,24.0,11.2,95,70,54,29.90,29.31,17,7,17,0.00
2013-2-1,24.7,18.7,11.9,18.5,9.3,3.3,87,67,56,30.33,29.86,14,6,14,0.00
2013-2-2,22.1,16.7,10.4,18.4,9.9,2.8,86,74,65,30.34,30.02,10,2,10,0.00
2013-2-3,29.5,24.8,20.5,24.7,20.4,14.9,89,83,72,30.02,29.84,11,2,11,0.00
2013-2-4,30.1,22.6,16.4,23.2,14.0,8.9,83,69,61,30.07,29.91,12,4,12,0.00
2013-2-5,35.6,31.4,27.7,30.1,26.7,23.2,88,83,79,29.98,29.90,5,1,5,0.00
2013-2-6,32.8,30.5,27.7,27.9,25.1,20.5,87,80,67,30.33,29.98,7,4,7,0.00
2013-2-17,23.0,18.9,16.2,14.3,10.2,6.4,77,69,61,30.19,29.91,14,6,14,0.00
2013-2-18,34.7,18.8,13.3,18.1,8.9,5.0,72,66,44,30.35,30.17,12,5,12,0.00
2013-2-19,38.9,34.5,28.8,34.7,27.4,18.1,87,75,56,30.16,29.75,10,5,10,0.00
2013-2-20,28.8,22.8,19.1,22.0,13.7,8.9,76,68,59,30.14,29.88,14,7,14,0.00
2013-2-21,29.3,23.0,17.6,17.7,13.9,9.8,75,68,59,30.35,30.10,12,5,12,0.00
2013-2-22,27.7,25.3,22.1,23.8,19.7,14.5,88,79,72,30.38,30.22,8,2,8,0.00
2013-2-23,42.8,34.9,26.8,39.7,32.2,23.8,92,90,86,30.22,29.89,5,1,5,0.00
2013-2-24,40.1,33.2,26.1,35.0,27.2,19.2,95,79,62,30.15,29.87,12,4,12,0.00
2013-2-25,41.4,32.9,24.7,27.7,22.6,17.8,78,66,52,30.26,30.14,8,2,8,0.00
2013-2-26,36.0,32.2,28.4,34.4,27.6,21.2,95,83,70,30.26,29.73,14,3,14,0.00
2013-2-27,44.3,37.5,32.4,39.7,33.4,31.2,96,86,70,29.78,29.63,10,4,10,0.00
2013-2-28,38.9,34.5,31.5,31.9,28.6,26.4,87,79,67,29.79,29.71,9,3,9,0.00
2013-3-1,35.6,32.7,28.6,29.3,26.5,22.1,89,78,66,29.94,29.78,8,3,8,0.00
2013-3-2,28.8,26.3,23.9,22.8,20.3,18.7,82,78,70,29.93,29.86,8,4,8,0.00
2013-3-3,31.0,26.3,23.0,20.8,19.2,17.5,89,75,64,29.94,29.85,13,5,13,0.00
2013-3-4,32.8,26.7,21.2,20.3,17.0,13.6,78,67,57,30.07,29.94,14,6,14,0.00
2013-3-5,43.2,33.0,24.3,25.7,20.4,16.2,73,61,40,30.10,29.87,8,2,8,0.00
2013-3-6,35.6,32.7,29.3,31.5,28.9,25.5,93,86,73,30.08,29.74,14,5,14,0.00
2013-3-7,44.1,35.4,30.6,28.6,26.8,23.3,83,71,51,30.22,30.07,11,4,11,0.00
2013-3-8,41.0,34.9,28.8,28.0,25.7,23.2,88,70,56,30.35,30.18,17,5,17,0.00
2013-3-9,52.6,40.4,29.2,33.5,25.1,20.5,70,55,40,30.41,30.33,6,2,6,0.00
2013-3-10,57.2,48.2,39.8,30.8,24.6,21.3,51,40,29,30.38,30.29,10,2,10,0.00
2013-3-11,54.7,46.3,37.6,45.1,36.6,20.6,87,70,40,30.30,29.98,11,3,11,0.00
2013-3-12,51.8,45.0,34.6,48.3,40.2,26.9,94,83,71,30.00,29.86,13,5,13,0.00
2013-3-13,42.3,34.1,27.2,29.6,23.8,18.4,76,66,47,30.08,29.96,11,5,12,0.00
2013-3-14,35.6,30.1,24.8,20.3,16.6,14.6,80,58,43,30.13,30.05,14,7,14,0.00
2013-3-15,48.8,36.9,27.4,33.3,23.8,16.3,71,60,42,30.12,29.87,10,4,10,0.00
2013-3-16,43.6,36.1,30.4,34.3,30.9,28.2,92,82,63,30.00,29.75,8,2,8,0.00
2013-3-17,36.0,32.3,29.2,29.7,25.9,21.8,92,78,62,30.30,29.98,8,2,8,0.00
2013-3-18,31.0,29.6,27.9,28.2,23.5,18.5,92,78,68,30.33,29.94,10,2,10,0.00
2013-3-19,49.0,37.2,29.7,35.6,26.7,9.4,95,70,24,29.97,29.81,16,4,16,0.00
2013-3-20,44.3,34.7,26.8,24.2,18.0,14.6,74,52,32,30.01,29.84,12,4,12,0.00
2013-3-21,30.6,25.7,21.6,23.2,13.5,7.8,77,60,44,29.91,29.80,12,4,12,0.00
2013-3-22,36.2,28.4,21.6,20.2,17.2,11.4,75,63,49,30.04,29.87,12,5,12,0.00
2013-3-23,44.3,34.0,24.5,25.7,21.1,17.5,77,61,42,30.07,29.99,10,4,10,0.00
2013-3-24,38.9,32.8,26.3,24.5,21.1,17.1,71,62,54,30.05,29.71,6,1,6,0.00
2013-3-25,38.2,32.0,28.6,32.0,27.4,23.3,91,83,68,29.76,29.59,5,1,5,0.00
2013-3-26,44.6,35.8,29.5,32.0,28.7,26.2,93,77,49,30.06,29.76,10,3,10,0.00
2013-3-27,40.9,35.7,31.5,32.4,27.8,25.6,82,73,59,30.17,30.04,11,5,11,0.00
2013-3-28,42.3,36.2,32.6,30.1,28.1,24.7,83,73,53,30.28,30.12,12,4,12,0.00
2013-3-29,49.7,40.8,33.1,34.6,28.6,25.6,79,63,43,30.31,30.21,8,3,8,0.00
2013-3-30,52.9,43.1,33.5,30.3,25.4,20.6,73,51,34,30.30,30.19,6,1,6,0.00
2013-3-31,45.0,42.7,40.5,42.4,33.8,20.4,92,72,43,30.19,29.84,8,2,8,0.00
2013-4-1,55.1,43.1,31.7,44.1,33.2,16.0,89,69,47,30.04,29.84,12,4,12,0.00
2013-4-2,40.5,32.4,27.0,22.2,17.1,14.9,63,53,38,30.16,30.04,10,4,10,0.00
2013-4-7,64.6,59.5,49.1,41.8,39.1,33.1,54,47,42,30.20,30.07,7,3,7,0.00
2013-4-8,76.9,65.7,51.5,48.2,44.0,39.6,67,46,33,30.19,30.09,7,2,7,0.00
2013-4-9,79.6,69.4,61.0,55.4,50.3,43.7,63,51,39,30.22,30.07,9,3,9,0.00
2013-4-10,85.9,75.0,62.8,57.4,53.0,48.7,64,47,34,30.11,29.95,11,4,11,0.00
2013-4-11,81.7,67.3,52.6,58.2,53.4,48.4,86,63,41,30.07,29.90,12,2,12,0.00
2013-4-12,60.1,51.0,45.0,56.3,48.5,41.4,94,91,84,29.94,29.74,10,2,10,0.00
2013-4-13,61.2,49.9,41.9,41.4,34.3,29.9,87,57,37,30.07,29.88,10,3,10,0.00
2013-4-14,60.8,50.9,39.1,36.6,33.4,30.2,75,53,37,30.23,30.07,8,2,8,0.01
2013-4-15,61.4,54.1,49.3,49.2,43.5,34.1,80,68,49,30.36,30.23,9,3,9,0.00
2013-4-16,72.0,59.9,49.7,58.1,52.3,44.3,88,77,61,30.38,30.22,12,3,12,0.00
2013-4-17,65.3,59.8,55.3,58.4,53.5,48.6,93,80,68,30.35,30.24,6,1,6,0.00
2013-4-18,67.7,59.5,53.6,62.3,55.6,49.5,94,87,73,30.34,30.11,11,3,11,0.00
2013-4-19,69.5,60.8,47.0,62.6,56.3,40.1,91,85,76,30.11,29.74,13,5,13,0.00
2013-4-20,52.0,44.4,37.3,40.7,29.5,23.4,79,57,41,30.41,29.87,10,5,10,0.00
2013-4-21,51.8,41.0,30.8,27.7,23.4,18.6,65,50,36,30.62,30.41,8,2,8,0.00
2013-4-22,55.1,45.1,33.7,33.9,30.2,24.2,73,57,40,30.61,30.46,12,2,12,0.00
2013-4-23,56.5,44.1,36.0,41.5,35.2,27.6,83,72,54,30.47,30.19,6,1,6,0.00
2013-4-24,73.1,56.5,42.5,55.1,47.4,35.8,88,73,49,30.20,29.89,11,3,11,0.00
2013-4-25,58.1,48.0,37.1,40.3,31.7,28.4,80,55,35,30.39,30.11,12,2,12,0.00
2013-4-26,59.2,50.4,40.0,35.6,30.6,25.3,69,48,28,30.53,30.38,6,2,6,0.00
2013-4-27,68.8,56.8,45.0,39.9,33.7,27.6,53,42,30,30.50,30.38,8,2,8,0.00
2013-4-28,61.2,53.4,49.3,45.2,39.5,33.5,76,60,43,30.38,30.22,12,3,12,0.00
2013-4-29,55.8,51.4,47.5,52.9,48.1,41.9,93,89,73,30.23,30.15,9,2,9,0.00
2013-4-30,55.1,52.3,50.0,52.7,50.2,47.6,94,93,89,30.39,30.20,8,2,8,0.00
2013-5-1,68.0,55.5,44.1,47.9,39.5,34.8,90,59,32,30.51,30.38,9,2,9,0.00
2013-5-2,68.0,57.4,41.4,46.8,41.9,35.9,83,58,41,30.51,30.41,11,2,11,0.00
2013-5-3,66.1,54.8,45.2,45.4,41.0,36.6,83,61,41,30.47,30.38,11,2,11,0.00
2013-5-4,67.0,55.1,39.1,45.3,40.1,33.5,87,59,38,30.41,30.28,13,2,13,0.00
2013-5-5,63.0,51.2,39.6,44.0,38.8,34.5,87,65,43,30.31,30.24,9,2,9,0.00
2013-5-6,55.1,46.6,41.6,50.4,41.9,36.3,88,84,78,30.27,30.20,5,2,5,0.00
2013-5-11,59.2,59.2,59.0,55.7,55.7,55.5,88,88,88,30.00,29.99,5,2,5,0.00
2013-5-17,79.2,69.5,58.0,55.4,51.3,46.7,83,53,44,30.28,30.20,5,1,5,0.00
2013-5-18,63.0,59.0,54.4,54.0,51.4,48.2,89,76,60,30.33,30.26,7,2,7,0.00
2013-5-19,65.3,59.2,54.5,62.0,56.5,51.3,93,91,88,30.32,30.22,4,1,4,0.00
2013-5-20,78.1,68.1,61.6,68.7,63.1,59.6,94,84,69,30.25,30.13,4,1,4,0.00
2013-5-21,84.6,72.5,63.2,69.3,65.1,60.8,93,79,60,30.13,30.03,5,1,5,0.00
2013-5-22,86.2,72.7,63.0,67.6,63.5,59.9,91,75,51,30.09,29.98,4,1,4,0.00
2013-5-23,74.5,65.6,60.7,64.8,61.4,58.0,93,86,71,30.02,29.89,5,1,5,0.00
2013-5-24,60.7,50.3,40.7,58.2,44.9,31.2,94,82,67,30.23,29.88,7,3,7,0.00
2013-5-25,59.4,47.8,37.1,40.1,35.0,31.8,84,63,41,30.23,30.18,7,3,7,0.00
2013-5-26,66.2,53.7,41.8,40.7,36.8,33.3,72,54,36,30.33,30.23,5,2,5,0.00
2013-5-27,66.2,54.2,47.2,45.4,38.6,34.0,64,56,45,30.38,30.33,2,1,2,0.00
2013-6-13,77.0,67.8,61.0,67.8,61.8,53.9,92,81,71,29.85,29.63,11,2,11,0.00
2013-6-14,73.4,63.4,56.0,57.3,53.9,51.7,87,72,51,30.12,29.75,8,2,8,0.00
2013-6-15,76.5,65.5,57.1,61.3,53.5,47.4,87,67,43,30.22,30.10,7,1,7,0.00
2013-6-16,74.7,67.3,61.2,66.2,57.2,47.0,86,71,58,30.17,30.03,5,1,7,0.00
2013-6-17,80.8,71.4,65.2,68.8,63.8,60.0,85,77,62,30.11,30.04,6,1,6,0.00
2013-6-18,71.6,68.4,62.6,67.6,63.6,59.4,90,85,77,30.08,29.95,3,0,3,0.00
2013-6-19,73.1,64.4,58.3,62.5,57.8,54.6,92,80,63,30.28,30.03,5,0,5,0.00
2013-6-20,76.0,66.7,59.9,63.7,59.5,54.2,92,78,63,30.38,30.28,5,1,5,0.00
2013-6-21,80.3,67.5,57.8,63.2,55.2,49.0,76,65,51,30.41,30.36,6,1,6,0.00
2013-6-22,83.7,71.7,62.3,68.2,62.6,49.2,92,74,55,30.39,30.26,6,1,6,0.00
2013-6-23,82.6,72.6,65.5,71.4,65.9,61.8,92,80,65,30.33,30.22,3,1,4,0.00
2013-6-24,86.2,74.5,67.7,73.0,66.3,62.6,87,76,58,30.29,30.18,5,1,5,0.00
2013-6-25,85.3,74.6,66.1,71.6,66.3,60.4,87,76,59,30.20,30.05,4,1,4,0.00
2013-6-26,83.2,72.4,65.0,72.5,64.7,58.8,84,77,66,30.08,29.99,3,1,3,0.00
2013-6-27,81.5,70.8,66.6,71.7,66.2,62.9,91,86,72,29.99,29.78,7,1,7,0.00
2013-6-28,79.9,70.4,66.1,69.7,64.6,59.8,91,82,70,29.78,29.65,4,1,4,0.00
2013-6-29,80.6,70.9,63.7,64.8,61.5,58.2,84,73,53,29.86,29.68,6,1,6,0.00
2013-6-30,81.7,72.4,64.4,71.1,66.3,60.2,89,81,69,30.02,29.86,6,1,6,0.00
2013-7-1,78.5,71.4,67.7,69.8,66.9,64.8,91,86,75,30.12,29.99,3,1,3,0.00
2013-7-2,78.3,72.0,69.1,70.7,67.8,66.0,92,87,75,30.29,30.13,6,2,6,0.00
2013-7-3,79.9,71.4,68.0,71.6,68.1,66.1,94,90,75,30.36,30.28,6,2,6,0.00
2013-7-4,83.9,75.3,69.1,73.4,69.7,67.0,93,83,69,30.38,30.32,3,1,3,0.00
2013-7-5,85.0,74.9,68.8,73.4,69.1,66.3,93,83,67,30.36,30.28,5,1,5,0.00
2013-7-6,87.3,78.4,69.3,73.1,69.6,65.9,90,75,60,30.34,30.23,6,1,6,0.00
2013-7-7,77.8,72.0,69.7,70.3,66.4,64.7,85,83,78,30.27,30.23,2,1,2,0.00
2013-12-12,20.7,20.2,19.1,8.2,7.0,5.4,58,56,55,30.27,30.19,12,7,12,0.00
2013-12-13,32.0,29.4,20.5,19.6,16.8,8.0,63,59,53,30.33,30.17,12,3,12,0.00
2013-12-14,32.4,30.5,28.1,20.9,2.6,-21.2,65,35,1,30.34,29.90,8,2,8,0.00
2013-12-15,34.0,29.0,27.0,19.1,14.5,12.9,62,55,42,29.95,29.80,14,7,14,0.00
2013-12-16,29.2,26.1,22.0,17.5,15.0,11.4,66,62,53,30.19,29.94,9,2,9,0.00
2013-12-17,34.9,28.3,25.6,13.9,-3.0,-20.3,59,29,1,30.16,29.97,8,2,8,0.00
2013-12-18,31.3,28.4,25.4,20.5,12.7,-16.5,64,54,14,30.22,30.02,10,5,10,0.00
2013-12-19,49.7,38.5,23.9,32.4,24.2,12.2,64,57,46,30.20,30.12,10,3,10,0.00
2013-12-20,49.5,43.4,40.0,34.0,30.1,28.1,64,60,49,30.17,30.05,6,3,6,0.00
2013-12-21,57.1,49.9,41.4,37.1,22.6,-1.3,63,38,1,30.09,29.98,10,3,10,0.00
2013-12-22,61.2,57.6,54.2,4.2,1.4,-1.2,1,1,1,30.10,29.90,10,3,10,0.00
2013-12-23,54.4,39.9,30.6,16.6,9.4,-1.4,55,32,1,30.27,30.05,9,3,9,0.00
2013-12-24,31.7,25.6,16.2,18.5,12.3,-1.0,68,57,30,30.43,30.22,13,4,13,0.00
2013-12-25,26.3,19.8,13.5,15.3,9.8,3.9,69,65,62,30.53,30.34,9,2,9,0.00
2013-12-26,36.2,28.3,20.0,24.1,16.8,10.4,66,62,57,30.36,30.23,8,3,8,0.00
2013-12-27,42.1,33.7,25.9,20.8,18.0,15.7,66,53,37,30.41,30.33,12,3,12,0.00
2013-12-28,50.6,48.5,45.2,27.2,24.8,22.9,43,39,38,30.30,30.21,11,4,11,0.00
2013-12-29,42.7,39.5,37.4,-10.2,-12.6,-14.2,6,1,1,29.91,29.64,8,3,8,0.00
2013-12-30,40.7,32.7,24.1,18.5,5.8,-13.8,65,38,1,30.18,29.86,11,4,11,0.00
2013-12-31,33.5,26.2,22.9,22.1,15.1,11.3,67,63,51,30.31,30.11,11,4,11,0.00
2014-1-1,38.0,30.5,23.2,26.1,19.7,13.9,67,64,59,30.38,30.16,8,2,8,0.00
2014-1-2,29.3,29.1,29.0,16.7,15.5,14.0,59,56,53,30.16,30.11,2,1,2,0.00